BTI786 EYPA-UUEE
Flight info
| Callsign | BTI786 |
|---|---|
| Flight time | N/A |
| Altitude | 39000 |
| Route | ASKOR M155 KOMAL M864 IGORO/K0845F390 M864 DIPOP DIPOP3E |
| Aircraft | A20N/M-SDE2E3FGHIRWXY/LB1 |
Departure
| Time | 2026-04-15 13:42 |
|---|---|
| Airport | Palanga International Airport (EYPA) |
Arrival
| Time | N/A |
|---|---|
| Airport | Sheremetyevo International Airport (UUEE) |
| Time | Latitude | Longitude | Altitude | Speed | Heading |
|---|---|---|---|---|---|
| 2026-04-15 13:18 | 55.96894 | 21.09572 | 33 ft | 0 kts | 288° |
| 2026-04-15 13:30 | 55.96895 | 21.09569 | 33 ft | 0 kts | 288° |
| 2026-04-15 13:30 | 55.96901 | 21.09538 | 33 ft | 3 kts | 288° |
| 2026-04-15 13:30 | 55.96907 | 21.09500 | 32 ft | 2 kts | 307° |
| 2026-04-15 13:30 | 55.96925 | 21.09497 | 32 ft | 3 kts | 15° |
| 2026-04-15 13:31 | 55.96951 | 21.09507 | 32 ft | 3 kts | 12° |
| 2026-04-15 13:31 | 55.96978 | 21.09517 | 32 ft | 3 kts | 12° |
| 2026-04-15 13:31 | 55.97004 | 21.09528 | 32 ft | 3 kts | 13° |
| 2026-04-15 13:31 | 55.97031 | 21.09539 | 32 ft | 3 kts | 13° |
| 2026-04-15 13:32 | 55.97057 | 21.09551 | 32 ft | 2 kts | 13° |
| 2026-04-15 13:32 | 55.97077 | 21.09539 | 31 ft | 3 kts | 315° |
| 2026-04-15 13:32 | 55.97088 | 21.09497 | 30 ft | 3 kts | 288° |
| 2026-04-15 13:32 | 55.97094 | 21.09450 | 29 ft | 3 kts | 282° |
| 2026-04-15 13:33 | 55.97100 | 21.09401 | 28 ft | 3 kts | 282° |
| 2026-04-15 13:33 | 55.97107 | 21.09354 | 27 ft | 3 kts | 294° |
| 2026-04-15 13:33 | 55.97125 | 21.09321 | 26 ft | 3 kts | 333° |
| 2026-04-15 13:33 | 55.97150 | 21.09316 | 25 ft | 2 kts | 8° |
| 2026-04-15 13:34 | 55.97147 | 21.09315 | 25 ft | 2 kts | 12° |
| 2026-04-15 13:34 | 55.97132 | 21.09309 | 26 ft | 2 kts | 13° |
| 2026-04-15 13:34 | 55.97117 | 21.09303 | 26 ft | 2 kts | 13° |
| 2026-04-15 13:34 | 55.97102 | 21.09297 | 26 ft | 2 kts | 13° |
| 2026-04-15 13:35 | 55.97087 | 21.09290 | 26 ft | 2 kts | 13° |
| 2026-04-15 13:35 | 55.97073 | 21.09285 | 27 ft | 2 kts | 13° |
| 2026-04-15 13:35 | 55.97058 | 21.09278 | 27 ft | 2 kts | 13° |
| 2026-04-15 13:35 | 55.97043 | 21.09272 | 27 ft | 2 kts | 12° |
| 2026-04-15 13:36 | 55.97028 | 21.09266 | 27 ft | 2 kts | 13° |
| 2026-04-15 13:36 | 55.97014 | 21.09260 | 27 ft | 2 kts | 12° |
| 2026-04-15 13:36 | 55.96999 | 21.09254 | 27 ft | 2 kts | 13° |
| 2026-04-15 13:36 | 55.96984 | 21.09248 | 26 ft | 2 kts | 12° |
| 2026-04-15 13:37 | 55.96970 | 21.09242 | 26 ft | 2 kts | 13° |
| 2026-04-15 13:37 | 55.96955 | 21.09236 | 26 ft | 2 kts | 13° |
| 2026-04-15 13:37 | 55.96940 | 21.09230 | 26 ft | 2 kts | 13° |
| 2026-04-15 13:37 | 55.96925 | 21.09224 | 26 ft | 2 kts | 13° |
| 2026-04-15 13:38 | 55.96911 | 21.09218 | 26 ft | 2 kts | 12° |
| 2026-04-15 13:38 | 55.96896 | 21.09212 | 26 ft | 2 kts | 13° |
| 2026-04-15 13:38 | 55.96881 | 21.09206 | 26 ft | 2 kts | 13° |
| 2026-04-15 13:38 | 55.96867 | 21.09200 | 25 ft | 2 kts | 12° |
| 2026-04-15 13:39 | 55.96852 | 21.09194 | 25 ft | 2 kts | 13° |
| 2026-04-15 13:39 | 55.96838 | 21.09188 | 25 ft | 1 kts | 12° |
| 2026-04-15 13:39 | 55.96837 | 21.09188 | 25 ft | 0 kts | 13° |
| 2026-04-15 13:41 | 55.96970 | 21.09243 | 26 ft | 58 kts | 12° |
| 2026-04-15 13:41 | 55.97644 | 21.09510 | 29 ft | 135 kts | 13° |
| 2026-04-15 13:41 | 55.98695 | 21.09908 | 461 ft | 159 kts | 11° |
| 2026-04-15 13:42 | 55.99768 | 21.10356 | 1182 ft | 160 kts | 12° |
| 2026-04-15 13:42 | 56.00852 | 21.11008 | 1941 ft | 165 kts | 36° |
| 2026-04-15 13:42 | 56.01414 | 21.12783 | 2508 ft | 173 kts | 91° |
| 2026-04-15 13:42 | 56.01022 | 21.14799 | 3101 ft | 179 kts | 131° |
| 2026-04-15 13:43 | 56.00191 | 21.16496 | 3711 ft | 191 kts | 127° |
| 2026-04-15 13:43 | 55.99781 | 21.18922 | 4222 ft | 216 kts | 88° |
| 2026-04-15 13:43 | 56.00040 | 21.21658 | 4990 ft | 229 kts | 79° |
| 2026-04-15 13:43 | 56.00084 | 21.22000 | 5069 ft | 231 kts | 80° |
| 2026-04-15 13:44 | 56.00439 | 21.24925 | 5712 ft | 249 kts | 82° |
| 2026-04-15 13:44 | 56.00751 | 21.28064 | 6341 ft | 266 kts | 84° |
| 2026-04-15 13:44 | 56.01019 | 21.31406 | 7201 ft | 274 kts | 85° |
| 2026-04-15 13:44 | 56.01254 | 21.34843 | 8177 ft | 277 kts | 86° |
| 2026-04-15 13:45 | 56.01466 | 21.38304 | 9107 ft | 281 kts | 86° |
| 2026-04-15 13:45 | 56.01665 | 21.41769 | 9987 ft | 285 kts | 87° |
| 2026-04-15 13:45 | 56.01865 | 21.45425 | 10780 ft | 293 kts | 87° |
| 2026-04-15 13:47 | 56.03318 | 21.74093 | 15597 ft | 350 kts | 89° |
| 2026-04-15 13:47 | 56.03528 | 21.78440 | 16180 ft | 358 kts | 89° |
| 2026-04-15 13:47 | 56.03750 | 21.83052 | 16886 ft | 363 kts | 89° |
| 2026-04-15 13:48 | 56.03975 | 21.87725 | 17601 ft | 368 kts | 89° |
| 2026-04-15 13:48 | 56.04196 | 21.92385 | 18309 ft | 372 kts | 89° |
| 2026-04-15 13:48 | 56.04417 | 21.97038 | 18986 ft | 375 kts | 89° |
| 2026-04-15 13:48 | 56.04636 | 22.01719 | 19664 ft | 378 kts | 89° |
| 2026-04-15 13:49 | 56.04852 | 22.06373 | 20328 ft | 381 kts | 89° |
| 2026-04-15 13:49 | 56.05070 | 22.11116 | 21001 ft | 383 kts | 89° |
| 2026-04-15 13:49 | 56.05288 | 22.15867 | 21636 ft | 386 kts | 89° |
| 2026-04-15 13:49 | 56.05432 | 22.19067 | 22050 ft | 388 kts | 89° |
| 2026-04-15 13:50 | 56.05595 | 22.22711 | 22524 ft | 391 kts | 88° |
| 2026-04-15 13:50 | 56.05720 | 22.25506 | 22878 ft | 393 kts | 88° |
| 2026-04-15 13:50 | 56.05935 | 22.30324 | 23459 ft | 396 kts | 88° |
| 2026-04-15 13:50 | 56.06153 | 22.35256 | 24035 ft | 400 kts | 88° |
| 2026-04-15 13:51 | 56.06369 | 22.40247 | 24629 ft | 403 kts | 88° |
| 2026-04-15 13:51 | 56.06585 | 22.45219 | 25216 ft | 406 kts | 88° |
| 2026-04-15 13:51 | 56.06799 | 22.50217 | 25789 ft | 408 kts | 88° |
| 2026-04-15 13:51 | 56.07015 | 22.55292 | 26350 ft | 411 kts | 88° |
| 2026-04-15 13:52 | 56.07198 | 22.59633 | 26803 ft | 413 kts | 88° |
| 2026-04-15 13:52 | 56.07411 | 22.64736 | 27324 ft | 416 kts | 88° |
| 2026-04-15 13:52 | 56.07623 | 22.69870 | 27850 ft | 418 kts | 89° |
| 2026-04-15 13:52 | 56.07835 | 22.75078 | 28327 ft | 420 kts | 89° |
| 2026-04-15 13:53 | 56.08044 | 22.80287 | 28778 ft | 423 kts | 89° |
| 2026-04-15 13:53 | 56.08253 | 22.85537 | 29217 ft | 425 kts | 89° |
| 2026-04-15 13:53 | 56.08460 | 22.90777 | 29644 ft | 427 kts | 89° |
| 2026-04-15 13:53 | 56.08666 | 22.96056 | 30035 ft | 429 kts | 89° |
| 2026-04-15 13:54 | 56.08872 | 23.01377 | 30420 ft | 431 kts | 89° |
| 2026-04-15 13:54 | 56.09076 | 23.06709 | 30785 ft | 432 kts | 89° |
| 2026-04-15 13:54 | 56.09277 | 23.12059 | 31103 ft | 434 kts | 89° |
| 2026-04-15 13:54 | 56.09476 | 23.17422 | 31389 ft | 436 kts | 89° |
| 2026-04-15 13:55 | 56.09677 | 23.22853 | 31681 ft | 437 kts | 89° |
| 2026-04-15 13:55 | 56.09874 | 23.28268 | 32045 ft | 437 kts | 89° |
| 2026-04-15 13:55 | 56.10067 | 23.33617 | 32406 ft | 435 kts | 89° |
| 2026-04-15 13:55 | 56.10273 | 23.39038 | 32760 ft | 434 kts | 89° |
| 2026-04-15 13:56 | 56.10476 | 23.44387 | 33102 ft | 434 kts | 89° |
| 2026-04-15 13:56 | 56.10671 | 23.49716 | 33433 ft | 433 kts | 89° |
| 2026-04-15 13:56 | 56.10863 | 23.55130 | 33744 ft | 433 kts | 89° |
| 2026-04-15 13:56 | 56.11049 | 23.60463 | 34017 ft | 432 kts | 89° |
| 2026-04-15 13:57 | 56.11230 | 23.65826 | 34296 ft | 432 kts | 90° |
| 2026-04-15 13:57 | 56.11408 | 23.71176 | 34546 ft | 432 kts | 90° |
| 2026-04-15 13:57 | 56.11581 | 23.76516 | 34802 ft | 431 kts | 90° |
| 2026-04-15 13:57 | 56.11749 | 23.81809 | 35038 ft | 431 kts | 90° |
| 2026-04-15 13:58 | 56.11917 | 23.87157 | 35258 ft | 431 kts | 89° |
| 2026-04-15 13:58 | 56.12083 | 23.92486 | 35493 ft | 431 kts | 89° |
| 2026-04-15 13:58 | 56.12246 | 23.97838 | 35712 ft | 430 kts | 89° |
| 2026-04-15 13:58 | 56.12408 | 24.03179 | 35925 ft | 430 kts | 89° |
| 2026-04-15 13:59 | 56.12566 | 24.08465 | 36123 ft | 430 kts | 89° |
| 2026-04-15 13:59 | 56.12723 | 24.13838 | 36317 ft | 430 kts | 89° |
| 2026-04-15 13:59 | 56.12876 | 24.19118 | 36488 ft | 430 kts | 89° |
| 2026-04-15 13:59 | 56.13028 | 24.24449 | 36662 ft | 430 kts | 89° |
| 2026-04-15 14:00 | 56.13180 | 24.29836 | 36827 ft | 431 kts | 88° |
| 2026-04-15 14:00 | 56.13329 | 24.35173 | 36989 ft | 431 kts | 89° |
| 2026-04-15 14:00 | 56.13474 | 24.40507 | 37155 ft | 431 kts | 88° |
| 2026-04-15 14:00 | 56.13616 | 24.45837 | 37318 ft | 432 kts | 88° |
| 2026-04-15 14:01 | 56.13897 | 24.56525 | 37606 ft | 433 kts | 88° |
| 2026-04-15 14:01 | 56.14034 | 24.61915 | 37742 ft | 434 kts | 88° |
| 2026-04-15 14:01 | 56.14170 | 24.67338 | 37883 ft | 435 kts | 89° |
| 2026-04-15 14:02 | 56.14302 | 24.72687 | 38023 ft | 435 kts | 88° |
| 2026-04-15 14:02 | 56.14433 | 24.78134 | 38158 ft | 436 kts | 88° |
| 2026-04-15 14:02 | 56.14562 | 24.83550 | 38285 ft | 436 kts | 88° |
| 2026-04-15 14:02 | 56.14687 | 24.88901 | 38399 ft | 437 kts | 88° |
| 2026-04-15 14:03 | 56.14813 | 24.94354 | 38507 ft | 438 kts | 88° |
| 2026-04-15 14:03 | 56.14934 | 24.99759 | 38641 ft | 439 kts | 88° |
| 2026-04-15 14:03 | 56.15057 | 25.05255 | 38792 ft | 440 kts | 88° |
| 2026-04-15 14:03 | 56.15175 | 25.10731 | 38929 ft | 440 kts | 88° |
| 2026-04-15 14:04 | 56.15290 | 25.16166 | 39074 ft | 441 kts | 88° |
| 2026-04-15 14:04 | 56.15405 | 25.21673 | 39203 ft | 442 kts | 88° |
| 2026-04-15 14:04 | 56.15514 | 25.27092 | 39209 ft | 442 kts | 88° |
| 2026-04-15 14:05 | 56.15731 | 25.38130 | 39222 ft | 442 kts | 88° |
| 2026-04-15 14:05 | 56.15937 | 25.49073 | 39218 ft | 441 kts | 88° |
| 2026-04-15 14:06 | 56.16130 | 25.60023 | 39220 ft | 441 kts | 88° |
| 2026-04-15 14:06 | 56.16314 | 25.70931 | 39218 ft | 440 kts | 88° |
| 2026-04-15 14:07 | 56.16491 | 25.81880 | 39218 ft | 439 kts | 89° |
| 2026-04-15 14:07 | 56.16658 | 25.92764 | 39219 ft | 438 kts | 89° |
| 2026-04-15 14:08 | 56.16813 | 26.03639 | 39212 ft | 438 kts | 89° |
| 2026-04-15 14:08 | 56.16959 | 26.14520 | 39213 ft | 437 kts | 89° |
| 2026-04-15 14:09 | 56.17093 | 26.25369 | 39216 ft | 437 kts | 89° |
| 2026-04-15 14:09 | 56.17218 | 26.36181 | 39217 ft | 438 kts | 88° |
| 2026-04-15 14:10 | 56.17339 | 26.47087 | 39222 ft | 437 kts | 89° |
| 2026-04-15 14:10 | 56.17447 | 26.57937 | 39221 ft | 435 kts | 89° |
| 2026-04-15 14:11 | 56.17542 | 26.68701 | 39205 ft | 434 kts | 90° |
| 2026-04-15 14:11 | 56.17629 | 26.79501 | 39216 ft | 433 kts | 89° |
| 2026-04-15 14:12 | 56.17708 | 26.90252 | 39212 ft | 432 kts | 89° |
| 2026-04-15 14:12 | 56.17778 | 27.00999 | 39216 ft | 434 kts | 90° |
| 2026-04-15 14:13 | 56.17838 | 27.11763 | 39209 ft | 434 kts | 90° |
| 2026-04-15 14:13 | 56.17887 | 27.22507 | 39208 ft | 433 kts | 90° |
| 2026-04-15 14:14 | 56.17929 | 27.33279 | 39209 ft | 432 kts | 90° |
| 2026-04-15 14:14 | 56.17960 | 27.44031 | 39208 ft | 432 kts | 90° |
| 2026-04-15 14:15 | 56.17983 | 27.54738 | 39202 ft | 431 kts | 89° |
| 2026-04-15 14:15 | 56.17995 | 27.65435 | 39197 ft | 432 kts | 90° |
| 2026-04-15 14:16 | 56.17999 | 27.76163 | 39191 ft | 431 kts | 90° |
| 2026-04-15 14:16 | 56.17993 | 27.86835 | 39194 ft | 431 kts | 90° |
| 2026-04-15 14:17 | 56.17978 | 27.97565 | 39191 ft | 431 kts | 90° |
| 2026-04-15 14:17 | 56.17955 | 28.08241 | 39188 ft | 431 kts | 90° |
| 2026-04-15 14:18 | 56.17923 | 28.18937 | 39197 ft | 431 kts | 90° |
| 2026-04-15 14:18 | 56.17881 | 28.29677 | 39189 ft | 431 kts | 90° |
| 2026-04-15 14:19 | 56.17829 | 28.40344 | 39191 ft | 431 kts | 90° |
| 2026-04-15 14:19 | 56.17768 | 28.51060 | 39193 ft | 431 kts | 90° |
| 2026-04-15 14:20 | 56.17697 | 28.61750 | 39195 ft | 429 kts | 90° |
| 2026-04-15 14:20 | 56.17617 | 28.72427 | 39200 ft | 429 kts | 91° |
| 2026-04-15 14:21 | 56.17530 | 28.83080 | 39205 ft | 429 kts | 91° |
| 2026-04-15 14:21 | 56.17433 | 28.93763 | 39203 ft | 429 kts | 91° |
| 2026-04-15 14:22 | 56.17327 | 29.04426 | 39206 ft | 429 kts | 91° |
| 2026-04-15 14:22 | 56.17212 | 29.15016 | 39206 ft | 428 kts | 91° |
| 2026-04-15 14:23 | 56.17086 | 29.25663 | 39207 ft | 428 kts | 91° |
| 2026-04-15 14:23 | 56.16952 | 29.36289 | 39205 ft | 428 kts | 91° |
| 2026-04-15 14:24 | 56.16810 | 29.46869 | 39206 ft | 427 kts | 91° |
| 2026-04-15 14:24 | 56.16658 | 29.57524 | 39201 ft | 427 kts | 91° |
| 2026-04-15 14:25 | 56.16499 | 29.68090 | 39209 ft | 426 kts | 92° |
| 2026-04-15 14:25 | 56.16330 | 29.78676 | 39205 ft | 426 kts | 92° |
| 2026-04-15 14:26 | 56.16151 | 29.89258 | 39203 ft | 426 kts | 92° |
| 2026-04-15 14:26 | 56.15965 | 29.99794 | 39198 ft | 425 kts | 92° |
| 2026-04-15 14:27 | 56.15768 | 30.10397 | 39199 ft | 426 kts | 92° |
| 2026-04-15 14:27 | 56.15563 | 30.20967 | 39197 ft | 425 kts | 92° |
| 2026-04-15 14:28 | 56.15351 | 30.31482 | 39200 ft | 424 kts | 92° |
| 2026-04-15 14:28 | 56.15128 | 30.42027 | 39197 ft | 425 kts | 92° |
| 2026-04-15 14:29 | 56.14895 | 30.52583 | 39201 ft | 424 kts | 92° |
| 2026-04-15 14:29 | 56.14654 | 30.63096 | 39203 ft | 425 kts | 92° |
| 2026-04-15 14:30 | 56.14404 | 30.73670 | 39198 ft | 425 kts | 93° |
| 2026-04-15 14:30 | 56.14147 | 30.84163 | 39199 ft | 425 kts | 93° |
| 2026-04-15 14:31 | 56.13880 | 30.94708 | 39197 ft | 424 kts | 93° |
| 2026-04-15 14:31 | 56.13607 | 31.05191 | 39199 ft | 424 kts | 93° |
| 2026-04-15 14:32 | 56.13320 | 31.15695 | 39194 ft | 424 kts | 93° |
| 2026-04-15 14:32 | 56.13026 | 31.26207 | 39200 ft | 423 kts | 93° |
| 2026-04-15 14:33 | 56.12723 | 31.36719 | 39199 ft | 424 kts | 93° |
| 2026-04-15 14:33 | 56.12412 | 31.47227 | 39198 ft | 424 kts | 93° |
| 2026-04-15 14:34 | 56.12093 | 31.57713 | 39196 ft | 424 kts | 93° |
| 2026-04-15 14:34 | 56.11764 | 31.68192 | 39193 ft | 424 kts | 94° |
| 2026-04-15 14:35 | 56.11428 | 31.78674 | 39190 ft | 423 kts | 94° |
| 2026-04-15 14:35 | 56.11082 | 31.89142 | 39194 ft | 423 kts | 94° |
| 2026-04-15 14:36 | 56.10725 | 31.99650 | 39188 ft | 423 kts | 94° |
| 2026-04-15 14:36 | 56.10361 | 32.10110 | 39197 ft | 422 kts | 94° |
| 2026-04-15 14:37 | 56.09989 | 32.20525 | 39193 ft | 423 kts | 94° |
| 2026-04-15 14:37 | 56.09608 | 32.30987 | 39190 ft | 422 kts | 94° |
| 2026-04-15 14:38 | 56.09217 | 32.41459 | 39196 ft | 422 kts | 94° |
| 2026-04-15 14:38 | 56.08819 | 32.51870 | 39195 ft | 422 kts | 94° |
| 2026-04-15 14:39 | 56.08410 | 32.62337 | 39197 ft | 423 kts | 94° |
| 2026-04-15 14:39 | 56.07996 | 32.72762 | 39195 ft | 422 kts | 95° |
| 2026-04-15 14:40 | 56.07571 | 32.83219 | 39190 ft | 421 kts | 95° |
| 2026-04-15 14:40 | 56.07140 | 32.93592 | 39197 ft | 420 kts | 95° |
| 2026-04-15 14:41 | 56.06701 | 33.03930 | 39195 ft | 420 kts | 95° |
| 2026-04-15 14:41 | 56.06250 | 33.14333 | 39198 ft | 421 kts | 95° |
| 2026-04-15 14:42 | 56.05790 | 33.24760 | 39197 ft | 421 kts | 95° |
| 2026-04-15 14:42 | 56.05325 | 33.35121 | 39190 ft | 420 kts | 95° |
| 2026-04-15 14:43 | 56.04849 | 33.45473 | 39186 ft | 420 kts | 95° |
| 2026-04-15 14:43 | 56.04366 | 33.55841 | 39178 ft | 419 kts | 95° |
| 2026-04-15 14:44 | 56.03874 | 33.66177 | 39172 ft | 419 kts | 96° |
| 2026-04-15 14:44 | 56.03375 | 33.76508 | 39179 ft | 420 kts | 96° |
| 2026-04-15 14:45 | 56.02864 | 33.86886 | 39198 ft | 419 kts | 96° |
| 2026-04-15 14:45 | 56.02349 | 33.97161 | 39205 ft | 419 kts | 96° |
| 2026-04-15 14:46 | 56.01823 | 34.07516 | 39178 ft | 419 kts | 96° |
| 2026-04-15 14:46 | 56.01289 | 34.17839 | 39175 ft | 418 kts | 96° |
| 2026-04-15 14:47 | 56.00748 | 34.28105 | 39177 ft | 418 kts | 96° |
| 2026-04-15 14:47 | 56.00197 | 34.38396 | 39182 ft | 417 kts | 96° |
| 2026-04-15 14:48 | 55.99638 | 34.48686 | 39175 ft | 417 kts | 96° |
| 2026-04-15 14:48 | 55.99068 | 34.58991 | 39179 ft | 418 kts | 96° |
| 2026-04-15 14:49 | 55.98498 | 34.69172 | 38927 ft | 411 kts | 97° |
| 2026-04-15 14:49 | 55.98215 | 34.74212 | 38469 ft | 410 kts | 97° |
| 2026-04-15 14:49 | 55.97928 | 34.79278 | 38028 ft | 408 kts | 97° |
| 2026-04-15 14:49 | 55.97644 | 34.84251 | 37676 ft | 403 kts | 97° |
| 2026-04-15 14:50 | 55.97363 | 34.89115 | 37285 ft | 399 kts | 98° |
| 2026-04-15 14:50 | 55.97078 | 34.93991 | 36873 ft | 396 kts | 98° |
| 2026-04-15 14:50 | 55.96791 | 34.98888 | 36438 ft | 394 kts | 98° |
| 2026-04-15 14:50 | 55.96507 | 35.03692 | 36145 ft | 391 kts | 98° |
| 2026-04-15 14:51 | 55.96220 | 35.08494 | 35843 ft | 389 kts | 99° |
| 2026-04-15 14:51 | 55.95937 | 35.13243 | 35537 ft | 387 kts | 99° |
| 2026-04-15 14:51 | 55.95650 | 35.17977 | 35208 ft | 385 kts | 99° |
| 2026-04-15 14:51 | 55.95364 | 35.22676 | 34853 ft | 377 kts | 99° |
| 2026-04-15 14:52 | 55.95088 | 35.27197 | 34646 ft | 367 kts | 99° |
| 2026-04-15 14:52 | 55.94811 | 35.31684 | 34391 ft | 358 kts | 99° |
| 2026-04-15 14:52 | 55.94542 | 35.36079 | 33646 ft | 361 kts | 99° |
| 2026-04-15 14:52 | 55.94268 | 35.40452 | 33332 ft | 353 kts | 99° |
| 2026-04-15 14:53 | 55.94000 | 35.44706 | 33044 ft | 345 kts | 100° |
| 2026-04-15 14:53 | 55.93726 | 35.48980 | 32564 ft | 343 kts | 99° |
| 2026-04-15 14:53 | 55.93459 | 35.53156 | 32033 ft | 342 kts | 100° |
| 2026-04-15 14:53 | 55.93192 | 35.57323 | 31540 ft | 340 kts | 100° |
| 2026-04-15 14:54 | 55.92920 | 35.61495 | 31016 ft | 339 kts | 100° |
| 2026-04-15 14:54 | 55.92654 | 35.65599 | 30529 ft | 336 kts | 101° |
| 2026-04-15 14:54 | 55.92388 | 35.69686 | 30121 ft | 331 kts | 101° |
| 2026-04-15 14:54 | 55.92125 | 35.73721 | 29668 ft | 328 kts | 100° |
| 2026-04-15 14:55 | 55.91860 | 35.77774 | 29203 ft | 325 kts | 100° |
| 2026-04-15 14:55 | 55.91632 | 35.81739 | 28748 ft | 323 kts | 97° |
| 2026-04-15 14:55 | 55.91606 | 35.85729 | 28289 ft | 323 kts | 91° |
| 2026-04-15 14:55 | 55.91797 | 35.89644 | 27841 ft | 322 kts | 87° |
| 2026-04-15 14:56 | 55.92090 | 35.93576 | 27404 ft | 319 kts | 86° |
| 2026-04-15 14:56 | 55.92386 | 35.97478 | 26962 ft | 316 kts | 86° |
| 2026-04-15 14:56 | 55.92678 | 36.01335 | 26521 ft | 313 kts | 86° |
| 2026-04-15 14:56 | 55.92963 | 36.05104 | 26084 ft | 310 kts | 86° |
| 2026-04-15 14:57 | 55.93248 | 36.08878 | 25646 ft | 308 kts | 86° |
| 2026-04-15 14:57 | 55.93533 | 36.12654 | 25208 ft | 305 kts | 85° |
| 2026-04-15 14:57 | 55.94107 | 36.16267 | 24725 ft | 311 kts | 66° |
| 2026-04-15 14:57 | 55.95478 | 36.19305 | 24290 ft | 320 kts | 44° |
| 2026-04-15 14:58 | 55.97419 | 36.21275 | 23916 ft | 326 kts | 28° |
| 2026-04-15 14:58 | 55.99508 | 36.22762 | 23520 ft | 324 kts | 28° |
| 2026-04-15 14:58 | 56.01584 | 36.24226 | 23082 ft | 322 kts | 28° |
| 2026-04-15 14:58 | 56.03649 | 36.25699 | 22651 ft | 321 kts | 28° |
| 2026-04-15 14:59 | 56.05705 | 36.27165 | 22226 ft | 320 kts | 28° |
| 2026-04-15 14:59 | 56.07749 | 36.28622 | 21801 ft | 318 kts | 28° |
| 2026-04-15 14:59 | 56.09819 | 36.30100 | 21373 ft | 317 kts | 28° |
| 2026-04-15 14:59 | 56.11852 | 36.31556 | 20951 ft | 316 kts | 28° |
| 2026-04-15 15:00 | 56.13868 | 36.33003 | 20538 ft | 314 kts | 28° |
| 2026-04-15 15:00 | 56.15868 | 36.34519 | 20127 ft | 310 kts | 33° |
| 2026-04-15 15:00 | 56.17720 | 36.36411 | 19710 ft | 304 kts | 40° |
| 2026-04-15 15:00 | 56.19405 | 36.38581 | 19307 ft | 301 kts | 43° |
| 2026-04-15 15:01 | 56.21075 | 36.40850 | 18889 ft | 299 kts | 44° |
| 2026-04-15 15:01 | 56.22705 | 36.43074 | 18482 ft | 298 kts | 44° |
| 2026-04-15 15:01 | 56.24351 | 36.45308 | 18071 ft | 297 kts | 44° |
| 2026-04-15 15:01 | 56.25784 | 36.47873 | 17681 ft | 284 kts | 63° |
| 2026-04-15 15:02 | 56.26579 | 36.50974 | 17336 ft | 271 kts | 79° |
| 2026-04-15 15:02 | 56.27051 | 36.54122 | 17406 ft | 245 kts | 81° |
| 2026-04-15 15:02 | 56.27465 | 36.57004 | 17156 ft | 236 kts | 81° |
| 2026-04-15 15:02 | 56.27866 | 36.59806 | 16755 ft | 233 kts | 81° |
| 2026-04-15 15:03 | 56.28274 | 36.62622 | 16312 ft | 232 kts | 81° |
| 2026-04-15 15:03 | 56.28683 | 36.65418 | 15879 ft | 230 kts | 82° |
| 2026-04-15 15:03 | 56.29086 | 36.68160 | 15456 ft | 228 kts | 81° |
| 2026-04-15 15:03 | 56.29489 | 36.70886 | 15041 ft | 227 kts | 81° |
| 2026-04-15 15:04 | 56.29900 | 36.73614 | 14618 ft | 225 kts | 81° |
| 2026-04-15 15:04 | 56.30310 | 36.76321 | 14200 ft | 223 kts | 81° |
| 2026-04-15 15:04 | 56.30716 | 36.78989 | 13778 ft | 222 kts | 81° |
| 2026-04-15 15:04 | 56.31116 | 36.81639 | 13361 ft | 221 kts | 81° |
| 2026-04-15 15:05 | 56.31505 | 36.84295 | 12966 ft | 218 kts | 83° |
| 2026-04-15 15:05 | 56.31690 | 36.86963 | 12562 ft | 212 kts | 92° |
| 2026-04-15 15:05 | 56.31621 | 36.89560 | 12151 ft | 209 kts | 100° |
| 2026-04-15 15:05 | 56.31411 | 36.92125 | 11754 ft | 207 kts | 102° |
| 2026-04-15 15:06 | 56.30957 | 36.97184 | 10958 ft | 204 kts | 102° |
| 2026-04-15 15:06 | 56.30734 | 36.99669 | 10551 ft | 203 kts | 102° |
| 2026-04-15 15:06 | 56.30510 | 37.02154 | 10149 ft | 201 kts | 102° |
| 2026-04-15 15:07 | 56.30292 | 37.04589 | 9610 ft | 197 kts | 102° |
| 2026-04-15 15:07 | 56.30074 | 37.07019 | 8968 ft | 198 kts | 102° |
| 2026-04-15 15:07 | 56.29848 | 37.09402 | 8419 ft | 196 kts | 103° |
| 2026-04-15 15:07 | 56.29514 | 37.11765 | 7881 ft | 193 kts | 108° |
| 2026-04-15 15:08 | 56.29069 | 37.14000 | 7345 ft | 191 kts | 113° |
| 2026-04-15 15:08 | 56.28532 | 37.16171 | 6803 ft | 190 kts | 114° |
| 2026-04-15 15:08 | 56.27994 | 37.18318 | 6261 ft | 189 kts | 115° |
| 2026-04-15 15:08 | 56.27455 | 37.20448 | 5732 ft | 188 kts | 115° |
| 2026-04-15 15:09 | 56.26924 | 37.22543 | 5323 ft | 185 kts | 114° |
| 2026-04-15 15:09 | 56.26387 | 37.24657 | 5215 ft | 185 kts | 114° |
| 2026-04-15 15:09 | 56.25847 | 37.26762 | 5209 ft | 186 kts | 116° |
| 2026-04-15 15:09 | 56.25055 | 37.28566 | 5197 ft | 188 kts | 134° |
| 2026-04-15 15:10 | 56.23924 | 37.29823 | 5197 ft | 194 kts | 152° |
| 2026-04-15 15:10 | 56.22635 | 37.30550 | 5200 ft | 196 kts | 158° |
| 2026-04-15 15:10 | 56.21315 | 37.31212 | 5197 ft | 195 kts | 158° |
| 2026-04-15 15:10 | 56.20010 | 37.31855 | 5155 ft | 192 kts | 158° |
| 2026-04-15 15:11 | 56.18750 | 37.32473 | 4740 ft | 190 kts | 158° |
| 2026-04-15 15:11 | 56.17459 | 37.33109 | 4161 ft | 193 kts | 159° |
| 2026-04-15 15:11 | 56.16126 | 37.33440 | 3626 ft | 198 kts | 170° |
| 2026-04-15 15:11 | 56.14749 | 37.33261 | 3273 ft | 203 kts | 182° |
| 2026-04-15 15:12 | 56.13369 | 37.32717 | 3164 ft | 204 kts | 186° |
| 2026-04-15 15:12 | 56.12004 | 37.32108 | 2839 ft | 202 kts | 187° |
| 2026-04-15 15:12 | 56.10627 | 37.31489 | 2699 ft | 206 kts | 188° |
| 2026-04-15 15:12 | 56.09283 | 37.30875 | 2735 ft | 190 kts | 187° |
| 2026-04-15 15:13 | 56.08087 | 37.30315 | 2691 ft | 164 kts | 186° |
| 2026-04-15 15:13 | 56.07063 | 37.29836 | 2633 ft | 140 kts | 185° |
| 2026-04-15 15:13 | 56.06103 | 37.29411 | 2701 ft | 143 kts | 184° |
| 2026-04-15 15:13 | 56.05137 | 37.28994 | 2693 ft | 147 kts | 184° |
| 2026-04-15 15:14 | 56.04132 | 37.28561 | 2700 ft | 148 kts | 184° |
| 2026-04-15 15:14 | 56.03150 | 37.28133 | 2684 ft | 147 kts | 184° |
| 2026-04-15 15:14 | 56.02138 | 37.27690 | 2712 ft | 150 kts | 184° |
| 2026-04-15 15:14 | 56.01129 | 37.27242 | 2704 ft | 147 kts | 184° |
| 2026-04-15 15:15 | 56.00138 | 37.26801 | 2704 ft | 146 kts | 185° |
| 2026-04-15 15:15 | 55.99162 | 37.26369 | 2703 ft | 143 kts | 185° |
| 2026-04-15 15:15 | 55.98180 | 37.25937 | 2703 ft | 146 kts | 184° |
| 2026-04-15 15:15 | 55.97236 | 37.25515 | 2693 ft | 136 kts | 184° |
| 2026-04-15 15:16 | 55.96329 | 37.25111 | 2643 ft | 133 kts | 182° |
| 2026-04-15 15:16 | 55.95486 | 37.25165 | 2293 ft | 119 kts | 143° |
| 2026-04-15 15:16 | 55.95034 | 37.26341 | 1781 ft | 126 kts | 97° |
| 2026-04-15 15:16 | 55.95135 | 37.27950 | 1508 ft | 146 kts | 80° |
| 2026-04-15 15:17 | 55.95376 | 37.29830 | 1958 ft | 163 kts | 78° |
| 2026-04-15 15:17 | 55.95743 | 37.31889 | 1756 ft | 175 kts | 77° |
| 2026-04-15 15:17 | 55.96024 | 37.33928 | 1410 ft | 163 kts | 75° |
| 2026-04-15 15:17 | 55.96308 | 37.35854 | 1045 ft | 159 kts | 76° |
| 2026-04-15 15:18 | 55.96585 | 37.37750 | 798 ft | 160 kts | 74° |
| 2026-04-15 15:18 | 55.96862 | 37.39654 | 625 ft | 149 kts | 74° |